createdAt,value
2022-10-14T00:00:55.431Z,1012.08
2022-10-14T00:01:55.880Z,1012.13
2022-10-14T00:03:55.549Z,1012.08
2022-10-14T00:04:55.577Z,1012.11
2022-10-14T00:05:55.588Z,1012.09
2022-10-14T00:06:55.622Z,1012.10
2022-10-14T00:07:55.648Z,1012.04
2022-10-14T00:08:55.981Z,1012.05
2022-10-14T00:09:55.709Z,1012.05
2022-10-14T00:10:55.739Z,1012.03
2022-10-14T00:11:55.774Z,1012.04
2022-10-14T00:12:55.800Z,1012.01
2022-10-14T00:13:55.832Z,1012.00
2022-10-14T00:14:55.860Z,1011.97
2022-10-14T00:15:56.205Z,1011.99
2022-10-14T00:16:55.921Z,1012.00
2022-10-14T00:17:55.957Z,1011.96
2022-10-14T00:18:55.985Z,1012.02
2022-10-14T00:19:56.023Z,1012.00
2022-10-14T00:20:56.065Z,1011.98
2022-10-14T00:21:56.079Z,1011.97
2022-10-14T00:22:56.476Z,1011.96
2022-10-14T00:23:56.153Z,1011.95
2022-10-14T00:24:56.178Z,1011.94
2022-10-14T00:25:56.304Z,1011.95
2022-10-14T00:26:56.237Z,1011.93
2022-10-14T00:27:56.261Z,1011.92
2022-10-14T00:28:56.316Z,1011.91
2022-10-14T00:29:56.628Z,1011.95
2022-10-14T00:30:56.353Z,1011.94
2022-10-14T00:31:56.389Z,1011.95
2022-10-14T00:32:56.416Z,1011.91
2022-10-14T00:33:56.442Z,1011.93
2022-10-14T00:34:56.473Z,1011.97
2022-10-14T00:35:56.519Z,1011.94
2022-10-14T00:36:56.856Z,1011.91
2022-10-14T00:37:56.568Z,1011.88
2022-10-14T00:38:56.598Z,1011.86
2022-10-14T00:39:57.241Z,1011.92
2022-10-14T00:40:56.658Z,1011.89
2022-10-14T00:41:56.689Z,1011.90
2022-10-14T00:42:56.718Z,1011.90
2022-10-14T00:43:57.055Z,1011.89
2022-10-14T00:44:56.784Z,1011.89
2022-10-14T00:45:56.812Z,1011.90
2022-10-14T00:46:56.845Z,1011.91
2022-10-14T00:47:56.875Z,1011.94
2022-10-14T00:48:56.922Z,1011.93
2022-10-14T00:49:56.934Z,1011.92
2022-10-14T00:50:57.268Z,1011.93
2022-10-14T00:51:57.007Z,1011.94
2022-10-14T00:52:57.043Z,1011.94
2022-10-14T00:53:57.055Z,1011.93
2022-10-14T00:54:57.091Z,1011.94
2022-10-14T00:55:57.134Z,1011.89
2022-10-14T00:56:57.153Z,1011.92
2022-10-14T00:57:57.491Z,1011.89
2022-10-14T00:58:57.210Z,1011.89
2022-10-14T00:59:57.248Z,1011.86
2022-10-14T01:00:57.306Z,1011.88
2022-10-14T01:01:57.306Z,1011.88
2022-10-14T01:03:57.365Z,1011.91
2022-10-14T01:04:57.699Z,1011.89
2022-10-14T01:05:57.424Z,1011.88
2022-10-14T01:06:57.457Z,1011.87
2022-10-14T01:07:57.489Z,1011.90
2022-10-14T01:08:57.568Z,1011.87
2022-10-14T01:09:57.547Z,1011.88
2022-10-14T01:10:57.888Z,1011.87
2022-10-14T01:12:23.450Z,1011.85
2022-10-14T01:12:57.640Z,1011.82
2022-10-14T01:13:57.671Z,1011.86
2022-10-14T01:14:57.702Z,1011.81
2022-10-14T01:15:57.731Z,1011.80
2022-10-14T01:16:58.066Z,1011.81
2022-10-14T01:17:57.790Z,1011.80
2022-10-14T01:18:57.826Z,1011.81
2022-10-14T01:19:57.854Z,1011.78
2022-10-14T01:20:57.884Z,1011.82
2022-10-14T01:21:57.917Z,1011.80
2022-10-14T01:22:58.246Z,1011.77
2022-10-14T01:23:57.978Z,1011.78
2022-10-14T01:24:58.031Z,1011.73
2022-10-14T01:25:58.037Z,1011.67
2022-10-14T01:27:58.098Z,1011.65
2022-10-14T01:28:58.155Z,1011.60
2022-10-14T01:29:58.466Z,1011.58
2022-10-14T01:30:58.217Z,1011.56
2022-10-14T01:31:58.232Z,1011.54
2022-10-14T01:32:58.259Z,1011.57
2022-10-14T01:33:58.281Z,1011.53
2022-10-14T01:34:58.314Z,1011.51
2022-10-14T01:35:58.349Z,1011.49
2022-10-14T01:36:58.722Z,1011.48
2022-10-14T01:37:58.409Z,1011.46
2022-10-14T01:38:58.435Z,1011.41
2022-10-14T01:39:58.468Z,1011.46
2022-10-14T01:40:58.525Z,1011.41
2022-10-14T01:41:58.529Z,1011.38
2022-10-14T01:42:58.561Z,1011.38
2022-10-14T01:43:58.899Z,1011.35
2022-10-14T01:44:58.616Z,1011.35
2022-10-14T01:45:58.652Z,1011.30
2022-10-14T01:46:58.680Z,1011.29
2022-10-14T01:47:58.721Z,1011.25
2022-10-14T01:48:58.744Z,1011.25
2022-10-14T01:49:58.777Z,1011.19
2022-10-14T01:50:59.103Z,1011.20
2022-10-14T01:51:58.839Z,1011.21
2022-10-14T01:52:58.966Z,1011.22
2022-10-14T01:53:58.899Z,1011.22
2022-10-14T01:54:59.031Z,1011.20
2022-10-14T01:55:58.965Z,1011.22
2022-10-14T01:56:59.008Z,1011.20
2022-10-14T01:57:59.326Z,1011.21
2022-10-14T01:58:59.052Z,1011.23
2022-10-14T01:59:59.079Z,1011.21
2022-10-14T02:00:59.112Z,1011.18
2022-10-14T02:01:59.283Z,1011.18
2022-10-14T02:02:59.171Z,1011.19
2022-10-14T02:03:59.213Z,1011.16
2022-10-14T02:04:59.533Z,1011.17
2022-10-14T02:05:59.271Z,1011.15
2022-10-14T02:06:59.294Z,1011.22
2022-10-14T02:07:59.326Z,1011.15
2022-10-14T02:08:59.359Z,1011.16
2022-10-14T02:09:59.389Z,1011.17
2022-10-14T02:11:02.157Z,1011.16
2022-10-14T02:11:59.748Z,1011.11
2022-10-14T02:12:59.499Z,1011.08
2022-10-14T02:13:59.508Z,1011.08
2022-10-14T02:14:59.565Z,1011.11
2022-10-14T02:15:59.570Z,1011.12
2022-10-14T02:16:59.598Z,1011.10
2022-10-14T02:17:59.631Z,1011.09
2022-10-14T02:18:59.967Z,1011.03
2022-10-14T02:19:59.693Z,1011.03
2022-10-14T02:21:59.753Z,1011.01
2022-10-14T02:22:59.787Z,1011.01
2022-10-14T02:23:59.815Z,1011.00
2022-10-14T02:24:59.844Z,1011.02
2022-10-14T02:26:00.178Z,1011.01
2022-10-14T02:26:59.912Z,1011.00
2022-10-14T02:27:59.941Z,1010.98
2022-10-14T02:29:00.057Z,1010.98
2022-10-14T02:30:00.004Z,1010.98
2022-10-14T02:31:00.040Z,1010.94
2022-10-14T02:32:00.082Z,1010.94
2022-10-14T02:33:00.486Z,1010.92
2022-10-14T02:34:00.121Z,1010.92
2022-10-14T02:35:00.152Z,1010.92
2022-10-14T02:36:00.180Z,1010.90
2022-10-14T02:37:00.218Z,1010.91
2022-10-14T02:38:00.241Z,1010.91
2022-10-14T02:39:00.284Z,1010.91
2022-10-14T02:40:00.607Z,1010.90
2022-10-14T02:41:00.341Z,1010.91
2022-10-14T02:42:00.369Z,1010.92
2022-10-14T02:43:00.402Z,1010.92
2022-10-14T02:44:00.431Z,1010.90
2022-10-14T02:45:00.479Z,1010.88
2022-10-14T02:46:00.498Z,1010.84
2022-10-14T02:47:00.830Z,1010.82
2022-10-14T02:48:00.558Z,1010.82
2022-10-14T02:49:00.581Z,1010.85
2022-10-14T02:50:00.610Z,1010.81
2022-10-14T02:51:00.647Z,1010.78
2022-10-14T02:52:00.776Z,1010.80
2022-10-14T02:53:01.005Z,1010.76
2022-10-14T02:54:00.733Z,1010.76
2022-10-14T02:55:00.865Z,1010.73
2022-10-14T02:56:00.797Z,1010.76
2022-10-14T02:57:00.828Z,1010.72
2022-10-14T02:58:00.861Z,1010.70
2022-10-14T02:59:01.191Z,1010.67
2022-10-14T03:00:00.922Z,1010.69
2022-10-14T03:01:00.966Z,1010.69
2022-10-14T03:02:01.035Z,1010.71
2022-10-14T03:03:01.021Z,1010.72
2022-10-14T03:04:01.059Z,1010.65
2022-10-14T03:05:01.374Z,1010.71
2022-10-14T03:06:01.110Z,1010.69
2022-10-14T03:07:01.136Z,1010.68
2022-10-14T03:08:01.163Z,1010.70
2022-10-14T03:09:01.203Z,1010.67
2022-10-14T03:10:01.228Z,1010.66
2022-10-14T03:11:01.253Z,1010.67
2022-10-14T03:12:01.594Z,1010.64
2022-10-14T03:13:01.318Z,1010.63
2022-10-14T03:14:01.363Z,1010.63
2022-10-14T03:15:01.383Z,1010.63
2022-10-14T03:16:01.407Z,1010.65
2022-10-14T03:17:01.455Z,1010.67
2022-10-14T03:18:01.475Z,1010.66
2022-10-14T03:19:01.805Z,1010.65
2022-10-14T03:20:01.547Z,1010.61
2022-10-14T03:21:01.658Z,1010.60
2022-10-14T03:22:01.596Z,1010.59
2022-10-14T03:23:01.623Z,1010.57
2022-10-14T03:24:01.676Z,1010.60
2022-10-14T03:25:01.683Z,1010.57
2022-10-14T03:26:02.019Z,1010.59
2022-10-14T03:27:01.744Z,1010.53
2022-10-14T03:28:01.777Z,1010.49
2022-10-14T03:29:01.805Z,1010.50
2022-10-14T03:30:01.842Z,1010.50
2022-10-14T03:31:01.866Z,1010.51
2022-10-14T03:32:01.902Z,1010.47
2022-10-14T03:33:02.249Z,1010.46
2022-10-14T03:34:01.961Z,1010.50
2022-10-14T03:35:01.994Z,1010.47
2022-10-14T03:36:02.226Z,1010.50
2022-10-14T03:37:02.052Z,1010.50
2022-10-14T03:38:02.084Z,1010.52
2022-10-14T03:39:02.119Z,1010.50
2022-10-14T03:40:02.458Z,1010.49
2022-10-14T03:41:02.177Z,1010.51
2022-10-14T03:42:02.214Z,1010.47
2022-10-14T03:43:02.244Z,1010.47
2022-10-14T03:44:02.284Z,1010.43
2022-10-14T03:45:02.294Z,1010.43
2022-10-14T03:46:02.343Z,1010.40
2022-10-14T03:47:02.665Z,1010.41
2022-10-14T03:48:02.396Z,1010.38
2022-10-14T03:49:02.438Z,1010.39
2022-10-14T03:50:02.453Z,1010.41
2022-10-14T03:51:02.485Z,1010.38
2022-10-14T03:52:02.514Z,1010.38
2022-10-14T03:53:02.592Z,1010.37
2022-10-14T03:54:02.881Z,1010.36
2022-10-14T03:55:02.620Z,1010.36
2022-10-14T03:56:02.660Z,1010.36
2022-10-14T03:58:02.696Z,1010.34
2022-10-14T03:59:02.734Z,1010.32
2022-10-14T04:00:02.788Z,1010.34
2022-10-14T04:01:03.090Z,1010.31
2022-10-14T04:02:02.890Z,1010.28
2022-10-14T04:03:02.855Z,1010.29
2022-10-14T04:04:02.884Z,1010.31
2022-10-14T04:05:02.930Z,1010.33
2022-10-14T04:06:02.937Z,1010.35
2022-10-14T04:07:02.973Z,1010.37
2022-10-14T04:08:03.302Z,1010.35
2022-10-14T04:09:03.036Z,1010.31
2022-10-14T04:10:03.059Z,1010.34
2022-10-14T04:11:03.101Z,1010.30
2022-10-14T04:12:03.121Z,1010.31
2022-10-14T04:13:03.157Z,1010.36
2022-10-14T04:14:03.194Z,1010.34
2022-10-14T04:15:03.518Z,1010.38
2022-10-14T04:16:03.249Z,1010.36
2022-10-14T04:17:03.280Z,1010.39
2022-10-14T04:18:03.316Z,1010.38
2022-10-14T04:19:03.412Z,1010.36
2022-10-14T04:20:03.376Z,1010.36
2022-10-14T04:21:03.431Z,1010.35
2022-10-14T04:22:03.730Z,1010.35
2022-10-14T04:23:03.552Z,1010.34
2022-10-14T04:24:08.039Z,1010.35
2022-10-14T04:25:03.623Z,1010.32
2022-10-14T04:26:03.553Z,1010.33
2022-10-14T04:27:03.584Z,1010.30
2022-10-14T04:28:03.616Z,1010.29
2022-10-14T04:29:03.946Z,1010.27
2022-10-14T04:30:03.685Z,1010.26
2022-10-14T04:31:03.706Z,1010.25
2022-10-14T04:32:03.742Z,1010.24
2022-10-14T04:33:03.770Z,1010.28
2022-10-14T04:34:03.797Z,1010.33
2022-10-14T04:35:03.835Z,1010.32
2022-10-14T04:36:04.164Z,1010.28
2022-10-14T04:37:03.912Z,1010.27
2022-10-14T04:38:03.921Z,1010.24
2022-10-14T04:39:03.953Z,1010.27
2022-10-14T04:40:03.988Z,1010.23
2022-10-14T04:41:04.026Z,1010.26
2022-10-14T04:42:04.345Z,1010.25
2022-10-14T04:43:04.077Z,1010.25
2022-10-14T04:44:04.110Z,1010.22
2022-10-14T04:45:04.140Z,1010.21
2022-10-14T04:46:04.165Z,1010.21
2022-10-14T04:47:04.200Z,1010.18
2022-10-14T04:48:04.531Z,1010.17
2022-10-14T04:49:04.260Z,1010.17
2022-10-14T04:50:04.291Z,1010.16
2022-10-14T04:51:04.326Z,1010.16
2022-10-14T04:52:04.384Z,1010.14
2022-10-14T04:53:04.406Z,1010.14
2022-10-14T04:54:04.721Z,1010.13
2022-10-14T04:55:04.444Z,1010.14
2022-10-14T04:56:04.473Z,1010.15
2022-10-14T04:57:04.515Z,1010.09
2022-10-14T04:58:04.540Z,1010.07
2022-10-14T04:59:04.578Z,1010.08
2022-10-14T05:00:04.621Z,1010.05
2022-10-14T05:01:04.933Z,1010.05
2022-10-14T05:02:04.730Z,1010.06
2022-10-14T05:03:04.735Z,1010.02
2022-10-14T05:04:04.726Z,1010.02
2022-10-14T05:05:04.754Z,1010.01
2022-10-14T05:06:04.785Z,1010.05
2022-10-14T05:07:04.811Z,1010.00
2022-10-14T05:08:05.249Z,1009.97
2022-10-14T05:09:04.890Z,1009.98
2022-10-14T05:10:04.911Z,1009.96
2022-10-14T05:11:04.934Z,1009.95
2022-10-14T05:12:04.965Z,1009.91
2022-10-14T05:13:04.999Z,1009.89
2022-10-14T05:14:05.027Z,1009.87
2022-10-14T05:15:05.368Z,1009.88
2022-10-14T05:16:05.085Z,1009.86
2022-10-14T05:17:05.118Z,1009.85
2022-10-14T05:18:05.147Z,1009.79
2022-10-14T05:19:05.180Z,1009.79
2022-10-14T05:20:05.209Z,1009.72
2022-10-14T05:21:05.244Z,1009.73
2022-10-14T05:22:05.620Z,1009.74
2022-10-14T05:23:05.301Z,1009.69
2022-10-14T05:24:05.333Z,1009.72
2022-10-14T05:25:05.381Z,1009.71
2022-10-14T05:26:05.398Z,1009.70
2022-10-14T05:27:05.426Z,1009.74
2022-10-14T05:28:05.454Z,1009.73
2022-10-14T05:29:05.787Z,1009.75
2022-10-14T05:30:05.517Z,1009.70
2022-10-14T05:31:05.546Z,1009.70
2022-10-14T05:32:05.575Z,1009.70
2022-10-14T05:33:05.610Z,1009.71
2022-10-14T05:34:05.638Z,1009.68
2022-10-14T05:35:05.671Z,1009.71
2022-10-14T05:36:06.004Z,1009.72
2022-10-14T05:37:05.744Z,1009.71
2022-10-14T05:38:05.761Z,1009.72
2022-10-14T05:39:05.792Z,1009.74
2022-10-14T05:40:05.831Z,1009.73
2022-10-14T05:41:05.962Z,1009.71
2022-10-14T05:42:05.894Z,1009.76
2022-10-14T05:43:06.217Z,1009.77
2022-10-14T05:44:05.962Z,1009.75
2022-10-14T05:45:05.977Z,1009.74
2022-10-14T05:46:06.009Z,1009.78
2022-10-14T05:47:06.091Z,1009.78
2022-10-14T05:48:06.073Z,1009.76
2022-10-14T05:49:06.172Z,1009.77
2022-10-14T05:50:06.430Z,1009.77
2022-10-14T05:51:06.265Z,1009.75
2022-10-14T05:52:06.191Z,1009.73
2022-10-14T05:53:06.224Z,1009.73
2022-10-14T05:54:06.249Z,1009.68
2022-10-14T05:55:06.287Z,1009.70
2022-10-14T05:56:06.311Z,1009.70
2022-10-14T05:57:06.664Z,1009.72
2022-10-14T05:58:06.374Z,1009.69
2022-10-14T05:59:06.408Z,1009.71
2022-10-14T06:00:06.515Z,1009.69
2022-10-14T06:01:06.475Z,1009.70
2022-10-14T06:02:06.502Z,1009.69
2022-10-14T06:03:06.602Z,1009.68
2022-10-14T06:04:06.860Z,1009.65
2022-10-14T06:05:06.589Z,1009.63
2022-10-14T06:06:06.621Z,1009.64
2022-10-14T06:07:06.653Z,1009.61
2022-10-14T06:08:06.686Z,1009.55
2022-10-14T06:09:11.207Z,1009.56
2022-10-14T06:10:06.744Z,1009.59
2022-10-14T06:11:07.082Z,1009.56
2022-10-14T06:12:06.806Z,1009.56
2022-10-14T06:13:06.859Z,1009.56
2022-10-14T06:14:06.870Z,1009.56
2022-10-14T06:15:06.910Z,1009.55
2022-10-14T06:16:06.929Z,1009.56
2022-10-14T06:17:06.957Z,1009.54
2022-10-14T06:18:07.337Z,1009.59
2022-10-14T06:19:07.017Z,1009.61
2022-10-14T06:20:07.049Z,1009.61
2022-10-14T06:21:07.086Z,1009.64
2022-10-14T06:22:07.120Z,1009.65
2022-10-14T06:23:07.149Z,1009.65
2022-10-14T06:24:07.482Z,1009.60
2022-10-14T06:25:07.208Z,1009.66
2022-10-14T06:26:07.248Z,1009.62
2022-10-14T06:27:07.302Z,1009.59
2022-10-14T06:28:07.309Z,1009.60
2022-10-14T06:29:07.397Z,1009.63
2022-10-14T06:30:07.662Z,1009.63
2022-10-14T06:31:07.390Z,1009.64
2022-10-14T06:32:07.417Z,1009.64
2022-10-14T06:33:07.454Z,1009.61
2022-10-14T06:34:07.479Z,1009.58
2022-10-14T06:35:07.511Z,1009.57
2022-10-14T06:36:07.847Z,1009.58
2022-10-14T06:37:07.583Z,1009.53
2022-10-14T06:38:07.602Z,1009.54
2022-10-14T06:39:07.633Z,1009.54
2022-10-14T06:40:07.715Z,1009.53
2022-10-14T06:41:07.697Z,1009.52
2022-10-14T06:42:12.803Z,1009.47
2022-10-14T06:43:08.086Z,1009.47
2022-10-14T06:44:07.796Z,1009.52
2022-10-14T06:45:07.842Z,1009.53
2022-10-14T06:46:07.851Z,1009.50
2022-10-14T06:47:07.886Z,1009.55
2022-10-14T06:48:07.909Z,1009.54
2022-10-14T06:49:07.937Z,1009.58
2022-10-14T06:50:08.275Z,1009.56
2022-10-14T06:51:08.017Z,1009.55
2022-10-14T06:52:08.039Z,1009.57
2022-10-14T06:53:08.067Z,1009.53
2022-10-14T06:54:08.097Z,1009.50
2022-10-14T06:55:08.126Z,1009.49
2022-10-14T06:56:08.154Z,1009.50
2022-10-14T06:57:08.503Z,1009.51
2022-10-14T06:58:08.216Z,1009.52
2022-10-14T06:59:08.253Z,1009.50
2022-10-14T07:00:08.277Z,1009.50
2022-10-14T07:01:08.346Z,1009.53
2022-10-14T07:02:08.418Z,1009.52
2022-10-14T07:03:08.369Z,1009.54
2022-10-14T07:04:08.714Z,1009.53
2022-10-14T07:05:08.431Z,1009.48
2022-10-14T07:06:08.462Z,1009.46
2022-10-14T07:07:08.496Z,1009.43
2022-10-14T07:08:11.288Z,1009.45
2022-10-14T07:09:08.559Z,1009.38
2022-10-14T07:10:08.589Z,1009.39
2022-10-14T07:11:08.911Z,1009.37
2022-10-14T07:12:08.649Z,1009.39
2022-10-14T07:13:08.696Z,1009.39
2022-10-14T07:14:08.713Z,1009.38
2022-10-14T07:15:08.742Z,1009.42
2022-10-14T07:16:08.779Z,1009.41
2022-10-14T07:17:08.819Z,1009.35
2022-10-14T07:18:09.132Z,1009.35
2022-10-14T07:19:08.859Z,1009.32
2022-10-14T07:20:08.900Z,1009.29
2022-10-14T07:21:08.922Z,1009.32
2022-10-14T07:22:08.952Z,1009.27
2022-10-14T07:23:08.980Z,1009.28
2022-10-14T07:24:09.040Z,1009.25
2022-10-14T07:25:09.396Z,1009.28
2022-10-14T07:26:09.139Z,1009.29
2022-10-14T07:27:09.107Z,1009.31
2022-10-14T07:28:09.198Z,1009.31
2022-10-14T07:29:09.560Z,1009.31
2022-10-14T07:30:11.590Z,1009.27
2022-10-14T07:31:09.282Z,1009.28
2022-10-14T07:32:09.797Z,1009.26
2022-10-14T07:33:09.424Z,1009.23
2022-10-14T07:34:09.323Z,1009.26
2022-10-14T07:35:09.348Z,1009.21
2022-10-14T07:36:09.416Z,1009.24
2022-10-14T07:37:09.416Z,1009.23
2022-10-14T07:38:09.448Z,1009.23
2022-10-14T07:39:09.775Z,1009.23
2022-10-14T07:40:09.510Z,1009.24
2022-10-14T07:41:09.536Z,1009.27
2022-10-14T07:42:09.597Z,1009.28
2022-10-14T07:43:09.605Z,1009.25
2022-10-14T07:44:09.630Z,1009.23
2022-10-14T07:45:09.660Z,1009.22
2022-10-14T07:46:10.001Z,1009.21
2022-10-14T07:47:09.725Z,1009.26
2022-10-14T07:48:09.754Z,1009.24
2022-10-14T07:49:09.801Z,1009.21
2022-10-14T07:50:09.821Z,1009.23
2022-10-14T07:51:09.845Z,1009.26
2022-10-14T07:52:09.878Z,1009.25
2022-10-14T07:53:10.205Z,1009.25
2022-10-14T07:54:10.037Z,1009.25
2022-10-14T07:55:09.975Z,1009.24
2022-10-14T07:56:10.007Z,1009.27
2022-10-14T07:57:10.088Z,1009.24
2022-10-14T07:58:10.063Z,1009.28
2022-10-14T07:59:10.092Z,1009.30
2022-10-14T08:00:10.425Z,1009.31
2022-10-14T08:01:10.157Z,1009.27
2022-10-14T08:02:10.213Z,1009.30
2022-10-14T08:03:10.219Z,1009.27
2022-10-14T08:04:10.250Z,1009.23
2022-10-14T08:05:36.471Z,1009.21
2022-10-14T08:06:10.311Z,1009.16
2022-10-14T08:07:10.648Z,1009.22
2022-10-14T08:08:10.378Z,1009.23
2022-10-14T08:09:10.405Z,1009.25
2022-10-14T08:10:10.436Z,1009.27
2022-10-14T08:11:10.663Z,1009.22
2022-10-14T08:12:10.500Z,1009.23
2022-10-14T08:13:10.529Z,1009.24
2022-10-14T08:14:10.855Z,1009.22
2022-10-14T08:15:10.588Z,1009.28
2022-10-14T08:16:10.622Z,1009.25
2022-10-14T08:17:10.652Z,1009.24
2022-10-14T08:18:10.683Z,1009.23
2022-10-14T08:19:14.285Z,1009.20
2022-10-14T08:20:11.142Z,1009.21
2022-10-14T08:21:10.801Z,1009.17
2022-10-14T08:22:10.804Z,1009.24
2022-10-14T08:23:10.839Z,1009.17
2022-10-14T08:24:10.870Z,1009.16
2022-10-14T08:25:10.898Z,1009.16
2022-10-14T08:26:11.226Z,1009.18
2022-10-14T08:27:10.957Z,1009.13
2022-10-14T08:28:10.996Z,1009.11
2022-10-14T08:29:11.024Z,1009.13
2022-10-14T08:30:11.382Z,1009.06
2022-10-14T08:31:11.089Z,1009.09
2022-10-14T08:32:11.417Z,1009.08
2022-10-14T08:33:11.142Z,1009.12
2022-10-14T08:34:11.177Z,1009.12
2022-10-14T08:35:11.203Z,1009.13
2022-10-14T08:36:11.241Z,1009.09
2022-10-14T08:37:11.288Z,1009.10
2022-10-14T08:38:11.301Z,1009.12
2022-10-14T08:39:11.636Z,1009.07
2022-10-14T08:40:11.367Z,1008.99
2022-10-14T08:41:11.390Z,1009.01
2022-10-14T08:42:11.446Z,1009.01
2022-10-14T08:43:11.474Z,1009.03
2022-10-14T08:44:11.501Z,1009.00
2022-10-14T08:45:11.526Z,1009.02
2022-10-14T08:46:11.852Z,1008.99
2022-10-14T08:47:11.581Z,1008.97
2022-10-14T08:48:11.627Z,1008.92
2022-10-14T08:49:11.642Z,1008.94
2022-10-14T08:50:11.679Z,1008.90
2022-10-14T08:51:11.716Z,1008.86
2022-10-14T08:52:11.738Z,1008.83
2022-10-14T08:53:12.091Z,1008.84
2022-10-14T08:54:11.811Z,1008.84
2022-10-14T08:55:11.834Z,1008.77
2022-10-14T08:56:11.860Z,1008.77
2022-10-14T08:57:11.917Z,1008.77
2022-10-14T08:58:12.074Z,1008.79
2022-10-14T08:59:11.957Z,1008.78
2022-10-14T09:00:12.340Z,1008.81
2022-10-14T09:02:12.055Z,1008.79
2022-10-14T09:03:12.151Z,1008.80
2022-10-14T09:04:12.159Z,1008.80
2022-10-14T09:05:12.144Z,1008.80
2022-10-14T09:06:12.171Z,1008.78
2022-10-14T09:07:12.510Z,1008.77
2022-10-14T09:08:12.234Z,1008.76
2022-10-14T09:09:12.284Z,1008.78
2022-10-14T09:10:12.299Z,1008.76
2022-10-14T09:11:12.334Z,1008.81
2022-10-14T09:12:12.359Z,1008.72
2022-10-14T09:13:12.392Z,1008.77
2022-10-14T09:14:12.723Z,1008.77
2022-10-14T09:15:12.454Z,1008.73
2022-10-14T09:16:12.487Z,1008.76
2022-10-14T09:18:12.549Z,1008.71
2022-10-14T09:19:12.588Z,1008.72
2022-10-14T09:20:12.622Z,1008.70
2022-10-14T09:21:22.694Z,1008.68
2022-10-14T09:22:12.674Z,1008.69
2022-10-14T09:23:12.706Z,1008.70
2022-10-14T09:24:12.734Z,1008.69
2022-10-14T09:25:12.788Z,1008.73
2022-10-14T09:26:12.802Z,1008.67
2022-10-14T09:27:12.865Z,1008.65
2022-10-14T09:28:13.167Z,1008.63
2022-10-14T09:29:12.892Z,1008.61
2022-10-14T09:30:12.931Z,1008.59
2022-10-14T09:31:12.965Z,1008.63
2022-10-14T09:32:12.991Z,1008.59
2022-10-14T09:33:13.027Z,1008.57
2022-10-14T09:34:13.047Z,1008.56
2022-10-14T09:35:13.386Z,1008.53
2022-10-14T09:36:13.117Z,1008.57
2022-10-14T09:37:13.149Z,1008.55
2022-10-14T09:38:13.227Z,1008.61
2022-10-14T09:39:13.209Z,1008.62
2022-10-14T09:40:13.360Z,1008.66
2022-10-14T09:41:13.292Z,1008.65
2022-10-14T09:42:13.603Z,1008.63
2022-10-14T09:43:13.339Z,1008.67
2022-10-14T09:44:13.371Z,1008.66
2022-10-14T09:45:13.407Z,1008.65
2022-10-14T09:46:13.435Z,1008.67
2022-10-14T09:47:13.466Z,1008.67
2022-10-14T09:48:13.514Z,1008.61
2022-10-14T09:49:13.829Z,1008.56
2022-10-14T09:50:13.554Z,1008.57
2022-10-14T09:51:13.589Z,1008.55
2022-10-14T09:52:13.622Z,1008.58
2022-10-14T09:53:13.656Z,1008.54
2022-10-14T09:54:13.702Z,1008.49
2022-10-14T09:55:13.717Z,1008.51
2022-10-14T09:56:14.082Z,1008.45
2022-10-14T09:57:13.868Z,1008.46
2022-10-14T09:58:13.811Z,1008.47
2022-10-14T09:59:13.848Z,1008.42
2022-10-14T10:00:13.925Z,1008.44
2022-10-14T10:01:14.315Z,1008.41
2022-10-14T10:02:13.938Z,1008.40
2022-10-14T10:03:17.149Z,1008.36
2022-10-14T10:04:14.009Z,1008.38
2022-10-14T10:05:14.036Z,1008.37
2022-10-14T10:06:14.065Z,1008.39
2022-10-14T10:07:14.099Z,1008.34
2022-10-14T10:08:14.137Z,1008.33
2022-10-14T10:09:14.460Z,1008.34
2022-10-14T10:10:14.195Z,1008.38
2022-10-14T10:11:14.236Z,1008.39
2022-10-14T10:12:14.256Z,1008.37
2022-10-14T10:14:14.317Z,1008.42
2022-10-14T10:15:14.652Z,1008.41
2022-10-14T10:16:14.394Z,1008.40
2022-10-14T10:17:14.414Z,1008.41
2022-10-14T10:18:14.451Z,1008.39
2022-10-14T10:19:14.480Z,1008.39
2022-10-14T10:20:14.513Z,1008.36
2022-10-14T10:21:14.847Z,1008.34
2022-10-14T10:22:14.635Z,1008.37
2022-10-14T10:23:14.608Z,1008.31
2022-10-14T10:24:14.640Z,1008.28
2022-10-14T10:25:14.672Z,1008.26
2022-10-14T10:26:14.709Z,1008.26
2022-10-14T10:27:14.738Z,1008.22
2022-10-14T10:28:15.142Z,1008.19
2022-10-14T10:29:14.822Z,1008.20
2022-10-14T10:30:14.835Z,1008.22
2022-10-14T10:31:14.898Z,1008.24
2022-10-14T10:32:14.896Z,1008.22
2022-10-14T10:33:14.926Z,1008.22
2022-10-14T10:34:14.958Z,1008.21
2022-10-14T10:35:15.293Z,1008.19
2022-10-14T10:36:15.059Z,1008.11
2022-10-14T10:37:15.092Z,1008.16
2022-10-14T10:38:15.086Z,1008.16
2022-10-14T10:39:15.122Z,1008.14
2022-10-14T10:40:15.151Z,1008.13
2022-10-14T10:41:15.183Z,1008.12
2022-10-14T10:42:15.513Z,1008.12
2022-10-14T10:43:15.250Z,1008.08
2022-10-14T10:44:15.292Z,1008.09
2022-10-14T10:45:15.346Z,1008.03
2022-10-14T10:46:15.354Z,1008.08
2022-10-14T10:47:15.464Z,1008.04
2022-10-14T10:48:15.420Z,1008.00
2022-10-14T10:49:15.753Z,1007.95
2022-10-14T10:50:15.487Z,1007.95
2022-10-14T10:51:15.518Z,1007.96
2022-10-14T10:52:18.825Z,1008.00
2022-10-14T10:53:15.579Z,1007.99
2022-10-14T10:54:15.615Z,1007.99
2022-10-14T10:55:15.643Z,1008.02
2022-10-14T10:56:15.980Z,1007.98
2022-10-14T10:57:15.721Z,1007.97
2022-10-14T10:58:15.743Z,1007.96
2022-10-14T10:59:15.840Z,1007.93
2022-10-14T11:00:15.883Z,1007.96
2022-10-14T11:01:15.906Z,1007.90
2022-10-14T11:02:15.881Z,1007.92
2022-10-14T11:03:16.202Z,1007.88
2022-10-14T11:04:15.927Z,1007.87
2022-10-14T11:05:15.967Z,1007.83
2022-10-14T11:06:15.994Z,1007.79
2022-10-14T11:07:16.036Z,1007.78
2022-10-14T11:08:16.063Z,1007.73
2022-10-14T11:09:16.095Z,1007.74
2022-10-14T11:10:16.314Z,1007.74
2022-10-14T11:11:16.160Z,1007.73
2022-10-14T11:12:16.187Z,1007.73
2022-10-14T11:13:16.222Z,1007.70
2022-10-14T11:14:16.257Z,1007.72
2022-10-14T11:15:16.297Z,1007.66
2022-10-14T11:16:16.616Z,1007.69
2022-10-14T11:19:16.439Z,1007.68
2022-10-14T11:20:16.517Z,1007.68
2022-10-14T11:21:16.474Z,1007.67
2022-10-14T11:22:16.513Z,1007.69
2022-10-14T11:23:16.839Z,1007.65
2022-10-14T11:25:16.603Z,1007.68
2022-10-14T11:26:16.646Z,1007.65
2022-10-14T11:27:19.749Z,1007.70
2022-10-14T11:28:16.725Z,1007.67
2022-10-14T11:29:17.023Z,1007.73
2022-10-14T11:30:16.752Z,1007.65
2022-10-14T11:31:16.798Z,1007.63
2022-10-14T11:32:16.823Z,1007.64
2022-10-14T11:33:16.856Z,1007.59
2022-10-14T11:34:16.881Z,1007.58
2022-10-14T11:35:17.240Z,1007.57
2022-10-14T11:36:16.945Z,1007.55
2022-10-14T11:37:16.978Z,1007.53
2022-10-14T11:38:17.014Z,1007.50
2022-10-14T11:39:17.044Z,1007.50
2022-10-14T11:40:17.084Z,1007.48
2022-10-14T11:41:17.403Z,1007.47
2022-10-14T11:42:17.139Z,1007.47
2022-10-14T11:43:17.168Z,1007.47
2022-10-14T11:44:17.201Z,1007.46
2022-10-14T11:45:20.361Z,1007.45
2022-10-14T11:46:17.266Z,1007.39
2022-10-14T11:47:17.298Z,1007.40
2022-10-14T11:48:17.633Z,1007.34
2022-10-14T11:49:17.361Z,1007.35
2022-10-14T11:50:17.405Z,1007.34
2022-10-14T11:51:17.443Z,1007.31
2022-10-14T11:52:17.459Z,1007.35
2022-10-14T11:53:17.490Z,1007.37
2022-10-14T11:54:17.523Z,1007.33
2022-10-14T11:55:17.862Z,1007.37
2022-10-14T11:56:17.700Z,1007.34
2022-10-14T11:57:17.636Z,1007.32
2022-10-14T11:58:17.665Z,1007.32
2022-10-14T11:59:17.701Z,1007.27
2022-10-14T12:00:17.772Z,1007.28
2022-10-14T12:01:17.771Z,1007.27
2022-10-14T12:02:18.155Z,1007.23
2022-10-14T12:03:17.822Z,1007.24
2022-10-14T12:04:17.853Z,1007.22
2022-10-14T12:05:17.909Z,1007.21
2022-10-14T12:06:18.301Z,1007.21
2022-10-14T12:07:17.978Z,1007.21
2022-10-14T12:08:17.977Z,1007.19
2022-10-14T12:09:18.333Z,1007.23
2022-10-14T12:10:18.041Z,1007.21
2022-10-14T12:11:18.422Z,1007.21
2022-10-14T12:12:18.112Z,1007.18
2022-10-14T12:13:18.131Z,1007.23
2022-10-14T12:14:18.173Z,1007.22
2022-10-14T12:15:18.234Z,1007.20
2022-10-14T12:16:18.536Z,1007.21
2022-10-14T12:17:18.776Z,1007.16